Time;durP1;ratioP1;P1;durP2;ratioP2;P2;SDS_P1;SDS_P2;PMS_P1;PMS_P2;Temp;Humidity;BMP_temperature;BMP_pressure;BME280_temperature;BME280_humidity;BME280_pressure;Samples;Min_cycle;Max_cycle;Signal;HPM_P1;HPM_P2
2021/01/05 00:02:25;;;;;;;;;;;;;;;5.96;61.60;101401.78;6039276;23;96681;-79
2021/01/05 00:04:51;;;;;;;;;;;;;;;6.59;59.91;101389.94;6040510;23;96799;-78
2021/01/05 00:07:18;;;;;;;;;;;;;;;6.37;60.75;101393.59;6038840;23;101436;-79
2021/01/05 00:09:44;;;;;;;;;;;;;;;6.02;61.93;101396.50;6037498;23;98915;-79
2021/01/05 00:12:12;;;;;;;;;;;;;;;6.79;59.27;101393.25;6038156;23;97074;-78
2021/01/05 00:14:40;;;;;;;;;;;;;;;6.77;59.05;101389.75;6036829;23;96757;-79
2021/01/05 00:17:07;;;;;;;;;;;;;;;6.78;59.00;101391.50;6034783;23;99130;-78
2021/01/05 00:19:33;;;;;;;;;;;;;;;6.51;59.87;101397.00;6034005;23;97766;-78
2021/01/05 00:21:59;;;;;;;;;;;;;;;6.57;60.60;101394.31;6032487;23;97063;-78
2021/01/05 00:24:26;;;;;;;;;;;;;;;6.19;61.61;101399.00;6032007;23;97181;-78
2021/01/05 00:26:52;;;;;;;;;;;;;;;6.38;61.02;101393.59;6033337;23;98848;-78
2021/01/05 00:29:17;;;;;;;;;;;;;;;6.49;60.62;101401.41;6033754;23;97825;-78
2021/01/05 00:31:43;;;;;;;;;;;;;;;6.51;59.91;101404.88;6033021;23;96753;-78
2021/01/05 00:34:09;;;;;;;;;;;;;;;6.86;59.20;101404.56;6034604;23;97208;-78
2021/01/05 00:36:36;;;;;;;;;;;;;;;5.91;61.24;101408.78;6038390;23;99502;-78
2021/01/05 00:39:03;;;;;;;;;;;;;;;5.48;63.58;101408.13;6039529;23;98991;-78
2021/01/05 00:41:29;;;;;;;;;;;;;;;5.63;63.87;101415.06;6042721;23;96654;-78
2021/01/05 00:43:55;;;;;;;;;;;;;;;5.55;63.71;101409.84;6044917;23;96737;-79
2021/01/05 00:46:21;;;;;;;;;;;;;;;5.21;64.56;101407.34;6039936;23;97789;-78
2021/01/05 00:48:47;;;;;;;;;;;;;;;5.63;63.66;101405.44;6042661;23;98087;-78
2021/01/05 00:51:14;;;;;;;;;;;;;;;6.42;60.82;101407.59;6041350;23;96869;-79
2021/01/05 00:53:40;;;;;;;;;;;;;;;5.94;61.55;101407.03;6036687;23;96705;-79
2021/01/05 00:56:06;;;;;;;;;;;;;;;5.52;63.37;101408.09;6031518;23;100875;-79
2021/01/05 00:58:33;;;;;;;;;;;;;;;5.47;63.95;101395.88;6031971;23;98338;-78
2021/01/05 01:00:59;;;;;;;;;;;;;;;5.77;63.26;101408.88;6033606;23;96639;-78
2021/01/05 01:03:25;;;;;;;;;;;;;;;4.94;65.45;101402.19;6032428;23;96835;-78
2021/01/05 01:05:51;;;;;;;;;;;;;;;5.52;63.98;101413.34;6033148;23;99431;-78
2021/01/05 01:08:17;;;;;;;;;;;;;;;5.95;62.80;101405.28;6035133;23;98961;-78
2021/01/05 01:10:43;;;;;;;;;;;;;;;6.41;60.73;101411.09;6038624;23;96755;-78
2021/01/05 01:13:10;;;;;;;;;;;;;;;5.89;61.59;101408.84;6041383;23;97020;-78
2021/01/05 01:15:37;;;;;;;;;;;;;;;5.57;63.46;101402.84;6046573;23;99301;-78
2021/01/05 01:18:03;;;;;;;;;;;;;;;5.72;63.11;101401.88;6044681;23;98031;-78
2021/01/05 01:20:29;;;;;;;;;;;;;;;5.80;63.22;101400.97;6037668;23;96745;-78
2021/01/05 01:22:55;;;;;;;;;;;;;;;6.06;61.86;101397.34;6033000;23;96808;-78
2021/01/05 01:25:21;;;;;;;;;;;;;;;6.18;61.59;101403.38;6032065;23;97968;-77
2021/01/05 01:27:47;;;;;;;;;;;;;;;6.18;61.21;101399.88;6032685;23;99118;-78
2021/01/05 01:30:14;;;;;;;;;;;;;;;5.14;64.00;101403.00;6035234;23;96686;-78
2021/01/05 01:32:40;;;;;;;;;;;;;;;5.60;63.71;101408.06;6039985;23;97631;-79
2021/01/05 01:35:07;;;;;;;;;;;;;;;5.97;62.72;101403.53;6038987;23;98101;-77
2021/01/05 01:37:33;;;;;;;;;;;;;;;6.41;60.66;101403.22;6039158;23;101501;-78
2021/01/05 01:39:59;;;;;;;;;;;;;;;6.74;59.61;101413.44;6039685;23;96737;-78
2021/01/05 01:42:25;;;;;;;;;;;;;;;6.75;59.39;101414.31;6040342;23;97137;-78
2021/01/05 01:44:51;;;;;;;;;;;;;;;5.64;63.30;101412.44;6039778;23;97713;-78
2021/01/05 01:47:19;;;;;;;;;;;;;;;6.01;61.32;101421.00;6040313;23;97801;-77
2021/01/05 01:49:46;;;;;;;;;;;;;;;6.50;60.37;101418.88;6042116;23;96642;-78
2021/01/05 01:52:11;;;;;;;;;;;;;;;6.10;61.83;101423.56;6047406;23;96690;-78
2021/01/05 01:54:52;;;;;;;;;;;;;;;6.39;60.52;101424.22;6043023;23;100863;-78
2021/01/05 01:57:36;;;;;;;;;;;;;;;6.10;61.27;101422.69;6049902;23;97786;-78
2021/01/05 02:00:15;;;;;;;;;;;;;;;6.64;60.07;101419.63;6050286;23;96615;-79
2021/01/05 02:02:53;;;;;;;;;;;;;;;6.96;58.46;101418.47;6049504;23;96550;-78
2021/01/05 02:05:24;;;;;;;;;;;;;;;6.53;60.28;101418.00;6051283;23;99019;-78
2021/01/05 02:07:59;;;;;;;;;;;;;;;6.66;59.57;101411.75;6053583;23;98106;-80
2021/01/05 02:10:33;;;;;;;;;;;;;;;6.05;62.19;101413.97;6051376;23;96617;-78
2021/01/05 02:13:08;;;;;;;;;;;;;;;5.98;62.26;101400.00;6051234;23;95897;-78
2021/01/05 02:15:40;;;;;;;;;;;;;;;6.18;61.94;101407.75;6048198;23;101522;-79
2021/01/05 02:18:12;;;;;;;;;;;;;;;6.73;59.89;101408.19;6045548;23;96806;-78
2021/01/05 02:20:41;;;;;;;;;;;;;;;5.87;62.17;101404.44;6036902;23;96688;-78
2021/01/05 02:23:13;;;;;;;;;;;;;;;6.31;60.44;101407.66;6033403;23;96802;-78
2021/01/05 02:25:47;;;;;;;;;;;;;;;5.85;62.88;101407.06;6036634;23;98908;-77
2021/01/05 02:28:15;;;;;;;;;;;;;;;6.32;60.73;101405.91;6034635;23;101452;-77
2021/01/05 02:30:44;;;;;;;;;;;;;;;5.44;63.91;101407.28;6033350;23;97169;-78
2021/01/05 02:33:16;;;;;;;;;;;;;;;4.87;65.48;101407.41;6034106;23;97178;-78
2021/01/05 02:36:09;;;;;;;;;;;;;;;5.08;65.40;101405.63;6032177;23;99492;-79
2021/01/05 02:38:51;;;;;;;;;;;;;;;5.15;65.22;101399.50;6031900;23;100862;-79
2021/01/05 02:41:29;;;;;;;;;;;;;;;5.22;65.23;101395.13;6031752;23;97019;-78
2021/01/05 02:44:18;;;;;;;;;;;;;;;5.35;64.61;101402.06;6032497;23;97260;-80
2021/01/05 02:46:50;;;;;;;;;;;;;;;4.90;66.24;101396.97;6033787;23;99350;-79
2021/01/05 02:49:23;;;;;;;;;;;;;;;4.91;65.47;101394.34;6032937;23;99299;-79
2021/01/05 02:52:14;;;;;;;;;;;;;;;4.88;67.06;101399.56;6038292;23;96743;-79
2021/01/05 02:54:54;;;;;;;;;;;;;;;5.49;63.75;101391.53;6031983;23;96647;-80
2021/01/05 02:57:29;;;;;;;;;;;;;;;5.58;64.21;101397.56;6031357;23;102254;-79
2021/01/05 03:00:12;;;;;;;;;;;;;;;5.11;65.43;101396.91;6036101;23;97843;-79
2021/01/05 03:02:56;;;;;;;;;;;;;;;6.12;62.04;101386.81;6041118;23;96673;-79
2021/01/05 03:05:22;;;;;;;;;;;;;;;5.86;61.60;101393.06;6043662;23;96587;-79
2021/01/05 03:07:48;;;;;;;;;;;;;;;5.57;62.96;101392.38;6040429;23;99115;-79
2021/01/05 03:10:29;;;;;;;;;;;;;;;6.32;61.63;101384.91;6033797;23;98924;-78
2021/01/05 03:13:28;;;;;;;;;;;;;;;6.58;59.78;101388.19;6033542;23;96757;-78
2021/01/05 03:15:57;;;;;;;;;;;;;;;6.05;61.77;101383.34;6032644;23;96773;-77
2021/01/05 03:18:28;;;;;;;;;;;;;;;6.74;59.88;101383.66;6031893;23;99331;-78
2021/01/05 03:20:57;;;;;;;;;;;;;;;6.84;59.47;101390.56;6031911;23;99190;-79
2021/01/05 03:23:23;;;;;;;;;;;;;;;6.02;61.74;101386.00;6032807;23;96650;-79
2021/01/05 03:25:51;;;;;;;;;;;;;;;5.77;62.40;101390.50;6033180;23;96698;-79
2021/01/05 03:28:19;;;;;;;;;;;;;;;5.55;62.76;101384.50;6031988;23;98944;-78
2021/01/05 03:30:47;;;;;;;;;;;;;;;5.02;64.98;101381.22;6032612;23;101500;-79
2021/01/05 03:33:14;;;;;;;;;;;;;;;5.86;62.41;101377.31;6037283;23;96644;-79
2021/01/05 03:35:39;;;;;;;;;;;;;;;5.65;63.11;101384.44;6039185;23;97242;-79
2021/01/05 03:38:05;;;;;;;;;;;;;;;6.09;61.56;101376.34;6041499;23;96552;-79
2021/01/05 03:40:31;;;;;;;;;;;;;;;5.91;61.96;101372.06;6040517;23;97608;-78
2021/01/05 03:42:57;;;;;;;;;;;;;;;5.71;62.68;101368.69;6042427;23;96704;-78
2021/01/05 03:45:24;;;;;;;;;;;;;;;4.81;65.65;101372.53;6041476;23;96732;-78
2021/01/05 03:47:50;;;;;;;;;;;;;;;5.42;64.28;101367.09;6042259;23;99199;-79
2021/01/05 03:50:17;;;;;;;;;;;;;;;5.24;64.48;101374.16;6040042;23;97792;-79
2021/01/05 03:52:43;;;;;;;;;;;;;;;5.34;63.88;101374.09;6035248;23;96875;-79
2021/01/05 03:55:09;;;;;;;;;;;;;;;5.36;64.07;101380.22;6036027;23;96993;-79
2021/01/05 03:57:35;;;;;;;;;;;;;;;5.99;62.04;101380.78;6033701;23;98916;-79
2021/01/05 04:00:01;;;;;;;;;;;;;;;5.45;63.44;101379.28;6032691;23;100419;-79
2021/01/05 04:02:27;;;;;;;;;;;;;;;5.92;62.41;101365.94;6033977;23;96897;-79
2021/01/05 04:04:53;;;;;;;;;;;;;;;6.18;60.84;101381.50;6041439;23;96784;-79
2021/01/05 04:07:19;;;;;;;;;;;;;;;5.89;62.07;101371.22;6042037;23;98929;-79
2021/01/05 04:09:45;;;;;;;;;;;;;;;5.54;63.00;101374.00;6037784;23;98249;-79
2021/01/05 04:12:11;;;;;;;;;;;;;;;5.82;62.39;101380.00;6040623;23;96584;-79
2021/01/05 04:14:37;;;;;;;;;;;;;;;5.81;62.41;101376.50;6039330;23;97036;-79
2021/01/05 04:17:02;;;;;;;;;;;;;;;5.98;61.75;101376.41;6037883;23;98003;-80
2021/01/05 04:19:28;;;;;;;;;;;;;;;5.50;63.66;101369.69;6042578;23;98793;-79
2021/01/05 04:21:54;;;;;;;;;;;;;;;5.08;65.03;101376.81;6038635;23;96823;-79
2021/01/05 04:24:21;;;;;;;;;;;;;;;5.61;63.25;101379.22;6033895;23;96804;-79
2021/01/05 04:26:47;;;;;;;;;;;;;;;6.17;61.71;101377.16;6032463;23;99591;-79
2021/01/05 04:29:12;;;;;;;;;;;;;;;6.15;61.20;101384.16;6033075;23;98003;-79
2021/01/05 04:31:39;;;;;;;;;;;;;;;5.82;61.97;101393.97;6033748;23;96641;-79
2021/01/05 04:34:06;;;;;;;;;;;;;;;6.34;61.07;101385.78;6032492;23;96781;-78
2021/01/05 04:36:32;;;;;;;;;;;;;;;5.94;61.25;101382.56;6031337;23;99128;-79
2021/01/05 04:38:58;;;;;;;;;;;;;;;5.26;63.65;101381.13;6032456;23;99242;-78
2021/01/05 04:41:26;;;;;;;;;;;;;;;5.23;64.83;101381.16;6033090;23;96858;-79
2021/01/05 04:43:54;;;;;;;;;;;;;;;6.02;62.12;101377.28;6032866;23;96826;-78
2021/01/05 04:46:24;;;;;;;;;;;;;;;5.91;61.63;101378.19;6033239;23;98137;-79
2021/01/05 04:48:54;;;;;;;;;;;;;;;6.16;61.42;101384.16;6035874;23;101727;-78
2021/01/05 04:51:23;;;;;;;;;;;;;;;6.18;60.39;101379.75;6036090;23;96795;-79
2021/01/05 04:53:52;;;;;;;;;;;;;;;5.52;63.91;101379.25;6035153;23;96807;-79
2021/01/05 04:56:18;;;;;;;;;;;;;;;5.91;62.31;101383.44;6034300;23;98127;-79
2021/01/05 04:58:49;;;;;;;;;;;;;;;5.93;62.35;101381.69;6035803;23;99271;-80
2021/01/05 05:01:18;;;;;;;;;;;;;;;5.90;61.90;101386.09;6036285;23;96701;-79
2021/01/05 05:04:01;;;;;;;;;;;;;;;5.48;62.71;101377.53;6034969;23;96946;-79
2021/01/05 05:06:34;;;;;;;;;;;;;;;6.07;61.16;101380.72;6033508;23;101901;-79
2021/01/05 05:09:05;;;;;;;;;;;;;;;5.77;61.52;101385.28;6032663;23;98835;-79
2021/01/05 05:11:33;;;;;;;;;;;;;;;5.80;62.83;101377.38;6033775;23;96673;-79
2021/01/05 05:14:03;;;;;;;;;;;;;;;5.79;62.97;101382.63;6032688;23;96859;-79
2021/01/05 05:16:48;;;;;;;;;;;;;;;5.56;62.85;101372.28;6031910;23;98975;-79
2021/01/05 05:19:20;;;;;;;;;;;;;;;5.98;61.38;101371.16;6030949;23;102031;-79
2021/01/05 05:21:48;;;;;;;;;;;;;;;6.65;59.88;101376.72;6031496;23;97006;-79
2021/01/05 05:24:21;;;;;;;;;;;;;;;6.43;59.86;101364.72;6031754;23;96809;-79
2021/01/05 05:26:51;;;;;;;;;;;;;;;5.62;62.73;101367.00;6031310;23;101348;-78
2021/01/05 05:29:30;;;;;;;;;;;;;;;5.50;63.40;101364.44;6031470;23;99003;-78
2021/01/05 05:31:57;;;;;;;;;;;;;;;5.02;64.84;101365.50;6031043;23;97210;-79
2021/01/05 05:34:24;;;;;;;;;;;;;;;5.66;62.88;101371.31;6031085;23;96908;-78
2021/01/05 05:36:56;;;;;;;;;;;;;;;6.06;61.69;101365.84;6032343;23;99072;-78
2021/01/05 05:39:29;;;;;;;;;;;;;;;5.65;62.29;101369.56;6031413;23;98744;-79
2021/01/05 05:42:02;;;;;;;;;;;;;;;5.93;62.38;101373.81;6032623;23;96825;-79
2021/01/05 05:44:32;;;;;;;;;;;;;;;6.03;61.30;101365.91;6032428;23;96769;-79
2021/01/05 05:47:01;;;;;;;;;;;;;;;5.88;61.23;101367.75;6031118;23;99208;-79
2021/01/05 05:49:32;;;;;;;;;;;;;;;5.65;63.23;101364.34;6031053;23;98137;-79
2021/01/05 05:52:01;;;;;;;;;;;;;;;5.99;61.31;101365.03;6032482;23;96917;-78
2021/01/05 05:54:26;;;;;;;;;;;;;;;6.15;60.85;101366.69;6031669;23;96873;-79
2021/01/05 05:57:03;;;;;;;;;;;;;;;6.35;59.63;101359.53;6031548;23;98862;-78
2021/01/05 05:59:34;;;;;;;;;;;;;;;5.90;61.81;101350.25;6031553;23;98978;-79
2021/01/05 06:02:00;;;;;;;;;;;;;;;5.60;61.80;101364.38;6031750;23;97288;-79
2021/01/05 06:04:32;;;;;;;;;;;;;;;6.16;60.83;101368.44;6039389;23;97070;-77
2021/01/05 06:06:58;;;;;;;;;;;;;;;5.85;61.57;101365.09;6041614;23;96962;-79
2021/01/05 06:09:25;;;;;;;;;;;;;;;6.07;61.20;101368.47;6041972;23;98313;-77
2021/01/05 06:11:51;;;;;;;;;;;;;;;5.98;61.08;101373.78;6037487;23;96677;-78
2021/01/05 06:14:17;;;;;;;;;;;;;;;6.38;59.08;101377.84;6039375;23;97041;-79
2021/01/05 06:16:44;;;;;;;;;;;;;;;5.62;61.44;101382.72;6041458;23;101182;-78
2021/01/05 06:19:13;;;;;;;;;;;;;;;5.14;63.60;101379.41;6044345;23;101191;-79
2021/01/05 06:21:39;;;;;;;;;;;;;;;5.27;63.19;101377.63;6043247;23;97176;-78
2021/01/05 06:24:06;;;;;;;;;;;;;;;5.52;62.66;101386.25;6046798;23;96788;-79
2021/01/05 06:26:32;;;;;;;;;;;;;;;5.41;63.65;101381.06;6046270;23;101873;-80
2021/01/05 06:28:59;;;;;;;;;;;;;;;4.91;64.79;101386.47;6045185;23;97390;-78
2021/01/05 06:31:27;;;;;;;;;;;;;;;5.76;62.94;101377.41;6047177;23;96620;-78
2021/01/05 06:33:55;;;;;;;;;;;;;;;5.89;61.83;101377.34;6042687;23;96520;-79
2021/01/05 06:36:22;;;;;;;;;;;;;;;5.52;63.51;101383.63;6039258;23;101769;-78
2021/01/05 06:38:51;;;;;;;;;;;;;;;5.33;63.47;101379.34;6035301;23;97884;-81
2021/01/05 06:41:17;;;;;;;;;;;;;;;6.14;61.38;101375.44;6036604;23;96843;-78
2021/01/05 06:43:43;;;;;;;;;;;;;;;6.30;60.27;101379.66;6035475;23;96862;-78
2021/01/05 06:46:15;;;;;;;;;;;;;;;6.13;60.74;101373.69;6040179;23;100300;-78
2021/01/05 06:48:43;;;;;;;;;;;;;;;5.99;61.08;101368.53;6040431;23;99263;-79
2021/01/05 06:51:12;;;;;;;;;;;;;;;6.23;60.92;101372.75;6040422;23;96650;-79
2021/01/05 06:53:43;;;;;;;;;;;;;;;6.38;59.73;101374.34;6041699;23;96954;-80
2021/01/05 06:56:12;;;;;;;;;;;;;;;6.14;61.09;101374.56;6042466;23;100944;-78
2021/01/05 06:58:38;;;;;;;;;;;;;;;6.10;61.53;101376.34;6037069;23;98949;-78
2021/01/05 07:01:05;;;;;;;;;;;;;;;6.82;59.54;101380.97;6039907;23;96987;-80
2021/01/05 07:03:32;;;;;;;;;;;;;;;6.24;60.53;101384.09;6038982;23;97154;-80
2021/01/05 07:05:57;;;;;;;;;;;;;;;5.99;62.38;101376.41;6030045;23;96967;-77
2021/01/05 07:08:25;;;;;;;;;;;;;;;6.73;60.14;101388.03;6031712;23;98772;-79
2021/01/05 07:10:51;;;;;;;;;;;;;;;5.69;62.06;101378.31;6031108;23;97799;-78
2021/01/05 07:13:16;;;;;;;;;;;;;;;5.58;64.11;101384.47;6029974;23;97010;-78
2021/01/05 07:15:42;;;;;;;;;;;;;;;6.03;62.82;101381.63;6031218;23;98119;-78
2021/01/05 07:18:09;;;;;;;;;;;;;;;5.76;63.52;101390.50;6030967;23;99408;-78
2021/01/05 07:20:35;;;;;;;;;;;;;;;5.30;64.68;101389.84;6031524;23;96813;-78
2021/01/05 07:23:03;;;;;;;;;;;;;;;5.56;64.57;101386.25;6031712;23;96711;-77
2021/01/05 07:25:30;;;;;;;;;;;;;;;5.79;63.74;101388.72;6030604;23;98379;-78
2021/01/05 07:27:56;;;;;;;;;;;;;;;5.68;64.29;101390.56;6030469;23;99130;-78
2021/01/05 07:30:22;;;;;;;;;;;;;;;5.59;64.56;101391.47;6030703;23;96959;-78
2021/01/05 07:32:48;;;;;;;;;;;;;;;5.27;64.57;101390.72;6031885;23;96800;-76
2021/01/05 07:35:14;;;;;;;;;;;;;;;5.04;65.95;101392.56;6030528;23;98875;-76
2021/01/05 07:37:42;;;;;;;;;;;;;;;5.47;64.82;101390.66;6027979;23;99283;-77
2021/01/05 07:40:08;;;;;;;;;;;;;;;6.00;62.83;101399.13;6028400;23;97154;-76
2021/01/05 07:42:35;;;;;;;;;;;;;;;6.20;61.74;101391.13;6030391;23;97059;-77
2021/01/05 07:45:01;;;;;;;;;;;;;;;6.31;61.25;101391.91;6028810;23;99337;-76
2021/01/05 07:47:28;;;;;;;;;;;;;;;5.99;62.66;101397.38;6028713;23;99290;-78
2021/01/05 07:49:54;;;;;;;;;;;;;;;6.50;60.91;101400.50;6031464;23;96768;-77
2021/01/05 07:52:22;;;;;;;;;;;;;;;5.72;62.88;101397.50;6031259;23;96737;-78
2021/01/05 07:54:48;;;;;;;;;;;;;;;5.58;64.40;101407.19;6028418;23;99094;-79
2021/01/05 07:57:14;;;;;;;;;;;;;;;5.75;63.34;101404.50;6031405;23;101907;-80
2021/01/05 07:59:40;;;;;;;;;;;;;;;5.76;63.60;101407.13;6030698;23;96967;-78
2021/01/05 08:02:07;;;;;;;;;;;;;;;5.19;65.33;101402.97;6031029;23;96795;-77
2021/01/05 08:04:32;;;;;;;;;;;;;;;5.60;64.87;101400.19;6022672;23;98887;-77
2021/01/05 08:06:58;;;;;;;;;;;;;;;5.96;63.05;101400.03;6030274;23;99068;-78
2021/01/05 08:09:24;;;;;;;;;;;;;;;5.45;65.00;101408.13;6037211;23;97210;-76
2021/01/05 08:11:50;;;;;;;;;;;;;;;6.05;62.63;101406.09;6048194;23;96647;-77
2021/01/05 08:14:20;;;;;;;;;;;;;;;5.72;63.49;101397.50;6044539;23;98448;-78
2021/01/05 08:16:49;;;;;;;;;;;;;;;5.74;63.99;101402.75;6052037;23;101962;-77
2021/01/05 08:19:15;;;;;;;;;;;;;;;5.79;64.61;101391.34;6050492;23;96807;-75
2021/01/05 08:21:41;;;;;;;;;;;;;;;5.67;64.17;101393.19;6051873;23;96790;-77
2021/01/05 08:24:07;;;;;;;;;;;;;;;6.64;61.01;101398.63;6044647;23;98147;-78
2021/01/05 08:26:32;;;;;;;;;;;;;;;6.66;60.81;101396.88;6034845;23;99370;-77
2021/01/05 08:28:58;;;;;;;;;;;;;;;6.78;59.87;101403.75;6032868;23;96711;-79
2021/01/05 08:31:30;;;;;;;;;;;;;;;6.38;61.58;101405.84;6033588;23;96896;-77
2021/01/05 08:33:57;;;;;;;;;;;;;;;5.89;62.86;101414.06;6032831;23;98740;-76
2021/01/05 08:36:26;;;;;;;;;;;;;;;5.56;64.54;101412.47;6031606;23;98041;-76
2021/01/05 08:38:52;;;;;;;;;;;;;;;6.15;63.23;101413.03;6031471;23;96909;-76
2021/01/05 08:41:18;;;;;;;;;;;;;;;5.85;63.48;101420.16;6031193;23;97374;-77
2021/01/05 08:43:43;;;;;;;;;;;;;;;5.92;63.20;101413.16;6032009;23;99517;-77
2021/01/05 08:46:09;;;;;;;;;;;;;;;6.25;63.00;101417.31;6031625;23;98849;-77
2021/01/05 08:48:35;;;;;;;;;;;;;;;6.70;60.60;101414.31;6025236;23;97857;-75
2021/01/05 08:51:02;;;;;;;;;;;;;;;6.10;62.19;101412.19;6026326;23;97456;-77
2021/01/05 08:53:31;;;;;;;;;;;;;;;5.98;63.41;101415.75;6027820;23;99990;-77
2021/01/05 08:55:57;;;;;;;;;;;;;;;6.61;60.92;101417.06;6030388;23;96699;-77
2021/01/05 08:58:23;;;;;;;;;;;;;;;6.53;61.63;101415.38;6029105;23;96945;-77
2021/01/05 09:00:48;;;;;;;;;;;;;;;6.86;60.13;101408.94;6030805;23;97411;-76
2021/01/05 09:03:14;;;;;;;;;;;;;;;6.69;60.28;101412.63;6030451;23;99228;-78
2021/01/05 09:05:40;;;;;;;;;;;;;;;7.40;58.57;101413.59;6029419;23;100276;-76
2021/01/05 09:08:07;;;;;;;;;;;;;;;6.37;61.31;101420.72;6029714;23;96674;-76
2021/01/05 09:10:33;;;;;;;;;;;;;;;6.38;61.57;101418.97;6028010;23;97086;-77
2021/01/05 09:12:59;;;;;;;;;;;;;;;5.81;63.63;101410.59;6029565;23;98366;-77
2021/01/05 09:15:25;;;;;;;;;;;;;;;5.81;63.89;101414.97;6030450;23;99108;-77
2021/01/05 09:17:51;;;;;;;;;;;;;;;6.40;62.04;101404.97;6029617;23;96797;-77
2021/01/05 09:20:18;;;;;;;;;;;;;;;6.52;60.91;101411.00;6029563;23;97274;-77
2021/01/05 09:22:44;;;;;;;;;;;;;;;6.47;62.57;101405.78;6028558;23;99139;-76
2021/01/05 09:25:14;;;;;;;;;;;;;;;6.63;60.91;101396.88;6030521;23;97842;-79
2021/01/05 09:27:40;;;;;;;;;;;;;;;6.10;63.15;101406.97;6029837;23;97276;-78
2021/01/05 09:30:07;;;;;;;;;;;;;;;5.82;63.36;101404.47;6030271;23;97042;-77
2021/01/05 09:32:34;;;;;;;;;;;;;;;6.13;63.00;101402.53;6037853;23;99059;-78
2021/01/05 09:34:59;;;;;;;;;;;;;;;5.47;64.39;101407.25;6045277;23;98826;-78
2021/01/05 09:37:25;;;;;;;;;;;;;;;6.24;62.88;101399.84;6050170;23;96585;-77
2021/01/05 09:39:52;;;;;;;;;;;;;;;6.81;60.29;101401.13;6041542;23;96650;-78
2021/01/05 09:42:18;;;;;;;;;;;;;;;6.44;61.13;101400.56;6040914;23;99530;-76
2021/01/05 09:44:44;;;;;;;;;;;;;;;5.77;63.06;101395.75;6043388;23;97979;-77
2021/01/05 09:47:10;;;;;;;;;;;;;;;5.95;63.52;101393.06;6041470;23;96696;-76
2021/01/05 09:49:36;;;;;;;;;;;;;;;6.11;62.30;101399.06;6037599;23;96949;-77
2021/01/05 09:52:02;;;;;;;;;;;;;;;6.82;60.52;101389.72;6038737;23;97941;-77
2021/01/05 09:54:51;;;;;;;;;;;;;;;;;;;;;
2021/01/05 09:57:19;;;;;;;;;;;;;;;6.49;61.26;101384.78;6037148;23;115798;-77
2021/01/05 09:59:45;;;;;;;;;;;;;;;6.68;61.23;101394.22;6036250;23;97020;-76
2021/01/05 10:02:11;;;;;;;;;;;;;;;6.03;62.93;101392.13;6033948;23;97812;-76
2021/01/05 10:04:37;;;;;;;;;;;;;;;5.79;63.79;101395.72;6033490;23;99003;-78
2021/01/05 10:10:56;;;;;;;;;;;;;;;;;;;;;
2021/01/05 10:16:12;;;;;;;;;;;;;;;5.67;65.22;101380.06;6028281;23;98377;-78
2021/01/05 10:18:38;;;;;;;;;;;;;;;5.66;65.53;101387.06;6032598;23;96943;-76
2021/01/05 10:21:04;;;;;;;;;;;;;;;6.06;63.90;101381.59;6031188;23;97016;-79
2021/01/05 10:23:30;;;;;;;;;;;;;;;5.92;64.75;101376.44;6030829;23;99058;-78
2021/01/05 10:25:56;;;;;;;;;;;;;;;5.50;65.73;101381.03;6031368;23;98893;-78
2021/01/05 10:28:22;;;;;;;;;;;;;;;5.96;64.28;101381.69;6030457;23;96964;-77
2021/01/05 10:30:49;;;;;;;;;;;;;;;5.71;65.29;101374.78;6032653;23;96864;-77
2021/01/05 10:33:15;;;;;;;;;;;;;;;5.76;65.49;101380.91;6045817;23;98958;-77
2021/01/05 10:35:41;;;;;;;;;;;;;;;5.55;65.57;101383.63;6051798;23;98793;-78
2021/01/05 10:38:07;;;;;;;;;;;;;;;5.01;67.37;101380.34;6049667;23;96882;-78
2021/01/05 10:40:32;;;;;;;;;;;;;;;5.53;66.41;101370.53;6053226;23;96593;-78
2021/01/05 10:42:58;;;;;;;;;;;;;;;6.19;64.19;101368.38;6051860;23;97789;-77
2021/01/05 10:45:26;;;;;;;;;;;;;;;6.49;63.07;101367.28;6043678;23;98124;-77
2021/01/05 10:48:04;;;;;;;;;;;;;;;6.35;62.93;101370.03;6048538;23;96817;-79
2021/01/05 10:50:29;;;;;;;;;;;;;;;6.13;64.55;101364.94;6044396;23;96660;-78
2021/01/05 10:52:55;;;;;;;;;;;;;;;6.30;63.62;101361.28;6037600;23;97850;-76
2021/01/05 10:55:21;;;;;;;;;;;;;;;6.37;62.84;101367.34;6036594;23;98872;-76
2021/01/05 10:57:47;;;;;;;;;;;;;;;5.77;64.98;101361.66;6034114;23;96802;-79
2021/01/05 11:00:15;;;;;;;;;;;;;;;5.72;65.40;101360.78;6032984;23;96936;-79
2021/01/05 11:02:40;;;;;;;;;;;;;;;5.98;65.37;101358.91;6032140;23;99252;-78
2021/01/05 11:05:10;;;;;;;;;;;;;;;6.19;63.98;101357.88;6033562;23;98033;-77
2021/01/05 11:07:36;;;;;;;;;;;;;;;6.00;64.00;101354.53;6035572;23;96714;-78
2021/01/05 11:10:01;;;;;;;;;;;;;;;6.01;64.47;101358.03;6032738;23;96912;-79
2021/01/05 11:12:27;;;;;;;;;;;;;;;5.84;64.91;101355.47;6031516;23;98969;-79
2021/01/05 11:14:53;;;;;;;;;;;;;;;5.34;66.37;101349.66;6031456;23;99267;-78
2021/01/05 11:17:20;;;;;;;;;;;;;;;5.29;67.37;101344.44;6031796;23;96953;-78
2021/01/05 11:19:46;;;;;;;;;;;;;;;5.78;65.60;101338.91;6033907;23;96809;-79
2021/01/05 11:22:14;;;;;;;;;;;;;;;5.81;65.18;101334.53;6035627;23;99053;-78
2021/01/05 11:24:40;;;;;;;;;;;;;;;6.75;62.02;101332.88;6032991;23;98875;-79
2021/01/05 11:27:07;;;;;;;;;;;;;;;6.75;61.51;101336.38;6033699;23;96933;-78
2021/01/05 11:29:33;;;;;;;;;;;;;;;6.41;62.72;101327.09;6032349;23;96911;-79
2021/01/05 11:32:02;;;;;;;;;;;;;;;5.41;65.84;101336.50;6031492;23;119504;-79
2021/01/05 11:34:29;;;;;;;;;;;;;;;6.15;63.52;101323.81;6030724;23;99130;-78
2021/01/05 11:36:59;;;;;;;;;;;;;;;6.34;63.63;101321.03;6033443;23;96855;-78
2021/01/05 11:39:32;;;;;;;;;;;;;;;6.80;61.74;101318.81;6033596;23;96905;-78
2021/01/05 11:41:58;;;;;;;;;;;;;;;6.97;61.02;101320.34;6031225;23;99355;-77
2021/01/05 11:44:25;;;;;;;;;;;;;;;5.92;64.37;101310.88;6030763;23;99214;-78
2021/01/05 11:46:50;;;;;;;;;;;;;;;5.94;64.87;101315.22;6034877;23;97107;-78
2021/01/05 11:49:16;;;;;;;;;;;;;;;6.46;62.89;101314.78;6038340;23;96760;-77
2021/01/05 11:51:42;;;;;;;;;;;;;;;5.93;64.74;101312.63;6035597;23;97767;-78
2021/01/05 11:54:09;;;;;;;;;;;;;;;5.83;64.95;101308.31;6030908;23;98887;-77
2021/01/05 11:56:36;;;;;;;;;;;;;;;5.71;66.19;101306.59;6036208;23;97042;-78
2021/01/05 11:59:04;;;;;;;;;;;;;;;6.43;63.48;101308.72;6032842;23;96810;-78
2021/01/05 12:01:33;;;;;;;;;;;;;;;6.97;61.56;101299.34;6033544;23;98200;-79
2021/01/05 12:03:59;;;;;;;;;;;;;;;6.50;62.07;101307.75;6033879;23;99128;-79
2021/01/05 12:06:25;;;;;;;;;;;;;;;5.99;64.37;101302.94;6031640;23;97193;-79
2021/01/05 12:08:52;;;;;;;;;;;;;;;5.52;65.68;101308.47;6029832;23;97093;-78
2021/01/05 12:11:18;;;;;;;;;;;;;;;5.50;66.89;101304.16;6030017;23;99269;-78
2021/01/05 12:13:45;;;;;;;;;;;;;;;6.06;64.79;101302.91;6030385;23;98859;-78
2021/01/05 12:16:11;;;;;;;;;;;;;;;5.84;64.97;101310.03;6031058;23;96733;-78
2021/01/05 12:18:37;;;;;;;;;;;;;;;5.87;64.90;101305.66;6028783;23;97130;-78
2021/01/05 12:21:03;;;;;;;;;;;;;;;6.00;64.80;101299.44;6030969;23;97552;-78
2021/01/05 12:23:28;;;;;;;;;;;;;;;5.90;65.12;101295.16;6030377;23;99306;-77
2021/01/05 12:25:54;;;;;;;;;;;;;;;6.37;63.42;101299.09;6030883;23;97251;-76
2021/01/05 12:28:20;;;;;;;;;;;;;;;6.06;64.90;101297.66;6030812;23;96885;-77
2021/01/05 12:30:47;;;;;;;;;;;;;;;6.50;62.84;101297.25;6029984;23;100295;-77
2021/01/05 12:33:13;;;;;;;;;;;;;;;6.45;63.40;101289.41;6034150;23;98892;-77
2021/01/05 12:35:42;;;;;;;;;;;;;;;6.11;64.64;101301.09;6036609;23;97209;-78
2021/01/05 12:38:07;;;;;;;;;;;;;;;5.89;65.32;101298.66;6037139;23;97042;-77
2021/01/05 12:40:33;;;;;;;;;;;;;;;5.70;66.86;101297.03;6034744;23;99211;-76
2021/01/05 12:42:59;;;;;;;;;;;;;;;5.78;66.15;101299.56;6044173;23;99169;-78
2021/01/05 12:45:25;;;;;;;;;;;;;;;5.88;66.33;101303.91;6046642;23;97424;-77
2021/01/05 12:47:57;;;;;;;;;;;;;;;6.49;64.36;101292.88;6036720;23;96805;-77
2021/01/05 12:50:35;;;;;;;;;;;;;;;6.89;62.60;101306.47;6035677;23;99024;-75
2021/01/05 12:53:04;;;;;;;;;;;;;;;6.86;62.46;101293.34;6035519;23;97702;-75
2021/01/05 12:55:30;;;;;;;;;;;;;;;6.86;62.42;101295.97;6033732;23;96661;-77
2021/01/05 12:57:56;;;;;;;;;;;;;;;6.73;63.37;101305.75;6032826;23;97280;-76
2021/01/05 13:00:22;;;;;;;;;;;;;;;6.44;63.39;101300.78;6035384;23;98303;-77